Portada
METAR-TAF:

METAR-TAF

Aeroports :

Gwalior, Índia

latitud: 26-17-36N, longitud: 78-13-40E, altitud: 188 m

METAR: manca

Hora: 05:53 (00:23 UTC)

Pronòstic

L'informe es va fer fa 14 hores i 53 minuts, a les 09:30 UTC
Pronòstic vàlid del 03 a les 12 UTC al 04 a les 00 UTC
Vent 5 kt del Oest/Nord-Oest
Visibilitat: 6000 m

TAF: VIGR 030930Z 0312/0400 30005KT 6000 NAC

Observacions i pronòstics meteorològics de més de 4000 aeroports (METAR i TAF).

Les estacions disponibles són els punts grocs i vermells al mapa.

Posi el ratolí al punt desitjat per veure el nom de l'estació.

Feu clic per veure les observacions i els pronòstics meteorològics.

Per canviar el mapa: feu clic els botons verds amb una creu de color negre per apropar; al botó verd amb un guió per allunyar la imatge; o en les fletxes verdes per a mapes adjacents.


METAR-TAF: